Time;durP1;ratioP1;P1;durP2;ratioP2;P2;SDS_P1;SDS_P2;PMS_P1;PMS_P2;Temp;Humidity;BMP_temperature;BMP_pressure;BME280_temperature;BME280_humidity;BME280_pressure;Samples;Min_cycle;Max_cycle;Signal;HPM_P1;HPM_P2
2022/05/19 00:00:29;;;;;;;10.20;4.05;;;;;;;11.07;81.56;101631.19;4890722;29;20340;-79
2022/05/19 00:02:56;;;;;;;9.80;3.95;;;;;;;11.19;82.74;101678.69;4892939;29;20561;-78
2022/05/19 00:05:21;;;;;;;13.75;4.60;;;;;;;11.01;82.37;101646.84;4892683;29;20490;-78
2022/05/19 00:07:47;;;;;;;7.10;3.90;;;;;;;11.01;82.43;101631.09;4893218;29;20059;-78
2022/05/19 00:10:21;;;;;;;6.80;4.22;;;;;;;11.45;81.83;101701.00;4890171;29;20048;-78
2022/05/19 00:12:49;;;;;;;9.75;3.88;;;;;;;11.17;82.07;101650.63;4894756;29;20048;-78
2022/05/19 00:15:14;;;;;;;6.60;4.00;;;;;;;11.30;82.59;101654.34;4893290;29;20059;-79
2022/05/19 00:17:42;;;;;;;9.75;3.70;;;;;;;11.48;82.87;101623.13;4890252;29;20048;-78
2022/05/19 00:20:10;;;;;;;13.73;4.72;;;;;;;11.48;82.89;101683.56;4902933;29;20095;-79
2022/05/19 00:22:37;;;;;;;15.55;4.65;;;;;;;11.10;83.31;101639.13;4886652;29;20052;-79
2022/05/19 00:25:05;;;;;;;11.00;4.78;;;;;;;11.31;82.79;101641.25;4891231;29;20105;-79
2022/05/19 00:27:31;;;;;;;8.00;4.63;;;;;;;11.39;82.53;101665.91;4888404;29;20639;-78
2022/05/19 00:29:57;;;;;;;15.50;3.80;;;;;;;11.23;83.08;101637.59;4889904;29;20036;-79
2022/05/19 00:32:22;;;;;;;8.45;4.10;;;;;;;11.48;83.67;101698.47;4889317;29;20493;-80
2022/05/19 00:34:50;;;;;;;6.07;4.28;;;;;;;11.22;82.78;101642.84;4890160;29;20036;-79
2022/05/19 00:37:17;;;;;;;8.63;4.80;;;;;;;11.29;82.84;101657.84;4886760;29;20500;-79
2022/05/19 00:39:44;;;;;;;21.50;5.00;;;;;;;11.32;82.47;101698.19;4888814;29;20048;-80
2022/05/19 00:45:00;;;;;;;8.00;4.15;;;;;;;11.23;83.57;101657.72;4892020;29;20103;-82
2022/05/19 00:47:35;;;;;;;11.02;5.00;;;;;;;11.06;82.95;101653.06;4888103;29;20049;-80
2022/05/19 00:50:03;;;;;;;6.78;4.70;;;;;;;11.26;83.52;101699.81;4888904;29;20048;-77
2022/05/19 00:52:38;;;;;;;11.68;4.22;;;;;;;11.16;83.48;101699.63;4902725;29;20060;-79
2022/05/19 00:55:14;;;;;;;7.32;5.28;;;;;;;10.74;84.33;101658.59;4890317;29;20068;-80
2022/05/19 00:57:52;;;;;;;7.70;4.45;;;;;;;10.83;84.26;101657.88;4889839;29;20056;-80
2022/05/19 01:00:21;;;;;;;10.00;4.95;;;;;;;11.29;84.60;101702.50;4904208;29;20056;-79
2022/05/19 01:02:54;;;;;;;15.43;4.45;;;;;;;11.48;83.82;101696.72;4890843;29;20063;-81
2022/05/19 01:05:59;;;;;;;7.75;4.25;;;;;;;10.60;84.61;101660.06;4893189;29;20048;-80
2022/05/19 01:08:34;;;;;;;9.32;4.07;;;;;;;10.75;84.03;101681.38;4890311;29;20457;-80
2022/05/19 01:11:02;;;;;;;10.63;4.25;;;;;;;10.93;84.25;101707.13;4894927;29;20120;-80
2022/05/19 01:13:30;;;;;;;6.25;4.30;;;;;;;10.99;84.52;101707.22;4890816;29;20140;-81
2022/05/19 01:15:58;;;;;;;6.88;3.90;;;;;;;10.60;85.05;101670.56;4890464;29;20064;-80
2022/05/19 01:18:26;;;;;;;15.85;5.28;;;;;;;10.53;85.69;101697.53;4887030;29;20068;-81
2022/05/19 01:20:54;;;;;;;8.63;4.60;;;;;;;10.33;85.43;101666.53;4887646;29;20056;-79
2022/05/19 01:23:28;;;;;;;12.23;4.88;;;;;;;10.64;83.77;101663.66;4893636;29;20044;-79
2022/05/19 01:26:27;;;;;;;8.48;5.38;;;;;;;10.72;84.18;101702.31;4913483;29;20052;-79
2022/05/19 01:28:57;;;;;;;8.25;6.00;;;;;;;10.51;84.27;101663.41;4890261;29;20104;-78
2022/05/19 01:31:33;;;;;;;7.90;5.65;;;;;;;10.72;84.07;101688.28;4889830;29;20052;-79
2022/05/19 01:34:02;;;;;;;8.48;4.68;;;;;;;10.72;84.73;101699.69;4886835;29;20110;-79
2022/05/19 01:36:28;;;;;;;7.88;4.93;;;;;;;10.65;84.63;101710.03;4883672;29;20064;-79
2022/05/19 01:39:02;;;;;;;15.32;4.97;;;;;;;10.94;83.98;101690.50;4908059;29;20036;-80
2022/05/19 01:41:48;;;;;;;14.07;5.28;;;;;;;11.11;84.24;101710.94;4903491;29;20053;-79
2022/05/19 01:44:40;;;;;;;11.27;6.38;;;;;;;10.64;85.11;101690.78;4888997;29;20052;-79
2022/05/19 01:47:12;;;;;;;13.48;5.32;;;;;;;10.52;84.63;101701.03;4888701;29;20045;-79
2022/05/19 01:50:05;;;;;;;7.95;4.78;;;;;;;10.58;84.87;101722.13;4903349;29;20072;-80
2022/05/19 01:52:39;;;;;;;7.93;5.07;;;;;;;10.31;85.55;101680.47;4888830;29;20083;-78
2022/05/19 01:55:16;;;;;;;14.27;5.82;;;;;;;10.07;85.02;101668.53;4903011;29;20048;-79
2022/05/19 01:57:58;;;;;;;8.55;5.70;;;;;;;10.09;85.47;101669.47;4891994;29;20641;-79
2022/05/19 02:00:28;;;;;;;9.75;5.88;;;;;;;10.10;85.58;101663.34;4888505;29;20063;-79
2022/05/19 02:03:21;;;;;;;9.27;5.18;;;;;;;10.21;85.79;101665.31;4890329;29;20043;-79
2022/05/19 02:06:06;;;;;;;10.35;4.80;;;;;;;10.38;84.86;101697.22;4834360;29;20049;-81
2022/05/19 02:08:43;;;;;;;9.65;5.63;;;;;;;10.26;84.78;101668.94;4893487;29;20097;-81
2022/05/19 02:11:17;;;;;;;8.32;5.72;;;;;;;10.06;85.28;101697.34;4890213;29;20052;-81
2022/05/19 02:13:44;;;;;;;10.75;6.22;;;;;;;10.53;85.31;101731.66;4890721;29;20056;-81
2022/05/19 02:16:15;;;;;;;7.47;5.93;;;;;;;10.45;85.40;101717.50;4876705;29;20092;-81
2022/05/19 02:18:44;;;;;;;9.55;6.40;;;;;;;10.36;85.28;101720.78;4893361;29;20048;-80
2022/05/19 02:21:13;;;;;;;14.52;5.00;;;;;;;10.35;85.61;101746.16;4891882;29;20050;-81
2022/05/19 02:23:43;;;;;;;7.80;5.18;;;;;;;10.46;85.11;101708.75;4884534;29;20577;-80
2022/05/19 02:26:15;;;;;;;6.90;4.63;;;;;;;10.12;86.47;101708.88;4892954;29;21337;-82
2022/05/19 02:28:53;;;;;;;11.60;6.40;;;;;;;10.28;86.24;101752.13;4908923;29;20508;-81
2022/05/19 02:31:29;;;;;;;13.15;5.80;;;;;;;10.30;85.93;101724.19;4890434;29;20052;-82
2022/05/19 02:33:58;;;;;;;12.10;6.07;;;;;;;10.20;85.38;101747.50;4889508;29;20040;-81
2022/05/19 02:36:24;;;;;;;7.80;5.80;;;;;;;9.96;86.20;101722.47;4891903;29;20107;-81
2022/05/19 02:38:54;;;;;;;10.20;5.35;;;;;;;9.83;85.89;101716.06;4890451;29;20060;-80
2022/05/19 02:41:30;;;;;;;10.73;6.13;;;;;;;9.70;85.88;101693.03;4875054;29;20056;-81
2022/05/19 02:43:56;;;;;;;10.70;6.03;;;;;;;10.32;85.23;101755.69;4889652;29;20064;-80
2022/05/19 02:46:23;;;;;;;7.68;5.68;;;;;;;10.39;85.92;101756.69;4873920;29;20059;-80
2022/05/19 02:48:49;;;;;;;6.68;5.13;;;;;;;10.10;85.55;101744.66;4889102;29;20044;-80
2022/05/19 02:51:20;;;;;;;11.48;6.25;;;;;;;10.15;86.38;101710.66;4891493;29;20032;-80
2022/05/19 02:53:49;;;;;;;7.38;5.63;;;;;;;10.01;86.12;101712.97;4881106;29;20045;-79
2022/05/19 02:56:18;;;;;;;10.80;6.43;;;;;;;10.04;86.26;101718.28;4890332;29;20060;-82
2022/05/19 02:58:47;;;;;;;12.93;6.28;;;;;;;9.91;85.57;101718.88;4907380;29;20053;-82
2022/05/19 03:01:12;;;;;;;17.50;5.63;;;;;;;9.92;85.44;101718.00;4888095;29;20218;-83
2022/05/19 03:03:38;;;;;;;11.80;7.00;;;;;;;10.15;85.72;101750.00;4875807;29;20592;-83
2022/05/19 03:06:04;;;;;;;11.73;6.50;;;;;;;10.20;85.43;101735.25;4904949;29;20051;-82
2022/05/19 03:08:31;;;;;;;10.82;5.80;;;;;;;10.20;85.60;101716.91;4906625;29;20048;-82
2022/05/19 03:10:58;;;;;;;15.48;5.45;;;;;;;10.53;85.40;101778.88;4891197;29;20124;-82
2022/05/19 03:13:25;;;;;;;9.10;5.85;;;;;;;9.89;85.92;101752.91;4874249;29;20056;-81
2022/05/19 03:15:54;;;;;;;15.85;6.20;;;;;;;9.74;86.67;101770.88;4888289;29;20053;-81
2022/05/19 03:18:19;;;;;;;9.77;5.78;;;;;;;9.82;87.02;101743.13;4892493;29;20036;-82
2022/05/19 03:20:45;;;;;;;8.63;5.60;;;;;;;9.71;86.68;101768.16;4903633;29;20081;-81
2022/05/19 03:23:11;;;;;;;10.70;6.13;;;;;;;10.21;86.99;101772.88;4890664;29;20112;-81
2022/05/19 03:25:38;;;;;;;11.82;6.40;;;;;;;10.01;86.53;101726.09;4894503;29;20044;-82
2022/05/19 03:28:05;;;;;;;9.65;6.32;;;;;;;10.14;85.93;101764.00;4891842;29;20045;-82
2022/05/19 03:30:31;;;;;;;12.15;6.30;;;;;;;10.26;85.61;101755.53;4895399;29;20040;-80
2022/05/19 03:32:57;;;;;;;14.93;5.45;;;;;;;10.02;85.46;101738.38;4886351;29;20400;-82
2022/05/19 03:35:25;;;;;;;13.15;6.35;;;;;;;9.98;85.94;101774.97;4892812;29;20087;-82
2022/05/19 03:37:51;;;;;;;11.10;6.50;;;;;;;10.15;85.96;101771.00;4893328;29;20036;-82
2022/05/19 03:40:17;;;;;;;8.73;6.43;;;;;;;10.21;85.90;101780.72;4887932;29;20050;-81
2022/05/19 03:42:44;;;;;;;12.10;7.45;;;;;;;10.05;85.32;101753.28;4889282;29;20480;-81
2022/05/19 03:45:10;;;;;;;12.95;6.05;;;;;;;10.23;85.34;101787.81;4891534;29;20037;-81
2022/05/19 03:47:36;;;;;;;13.15;7.18;;;;;;;10.20;85.34;101764.13;4886484;29;20060;-81
2022/05/19 03:50:03;;;;;;;9.05;5.78;;;;;;;10.23;85.78;101800.03;4890254;29;20048;-81
2022/05/19 03:52:28;;;;;;;14.77;6.35;;;;;;;10.31;85.13;101794.16;4886393;29;20056;-81
2022/05/19 03:54:54;;;;;;;16.92;7.45;;;;;;;10.16;84.74;101741.31;4889871;29;20076;-79
2022/05/19 03:57:23;;;;;;;7.75;5.07;;;;;;;10.55;84.55;101790.31;4888632;29;20510;-79
2022/05/19 03:59:50;;;;;;;7.72;6.20;;;;;;;10.42;84.08;101798.75;4907081;29;20860;-80
2022/05/19 04:02:33;;;;;;;9.65;5.50;;;;;;;10.34;83.58;101785.47;4892526;29;20067;-80
2022/05/19 04:04:59;;;;;;;13.98;7.30;;;;;;;10.23;83.91;101760.69;4894881;29;20121;-81
2022/05/19 04:07:27;;;;;;;17.88;6.13;;;;;;;10.40;83.72;101756.75;4875762;29;20044;-80
2022/05/19 04:09:56;;;;;;;10.45;5.80;;;;;;;10.49;84.19;101748.22;4893712;29;20059;-81
2022/05/19 04:12:22;;;;;;;8.90;5.78;;;;;;;10.60;82.18;101770.28;4877215;29;20077;-81
2022/05/19 04:14:49;;;;;;;15.77;6.85;;;;;;;10.59;82.24;101737.03;4880103;29;20132;-81
2022/05/19 04:17:16;;;;;;;14.88;5.78;;;;;;;10.67;82.71;101740.69;4909856;29;20072;-82
2022/05/19 04:19:48;;;;;;;43.28;7.40;;;;;;;10.85;82.62;101779.59;4892358;29;20479;-81
2022/05/19 04:22:13;;;;;;;13.88;7.05;;;;;;;10.66;82.44;101761.69;4890820;29;20059;-81
2022/05/19 04:24:39;;;;;;;13.02;5.72;;;;;;;11.19;81.83;101799.56;4893742;29;20060;-82
2022/05/19 04:27:05;;;;;;;9.95;5.65;;;;;;;10.90;81.88;101758.69;4894451;29;20481;-82
2022/05/19 04:29:32;;;;;;;26.35;7.50;;;;;;;10.96;81.45;101749.19;4905011;29;20058;-80
2022/05/19 04:31:59;;;;;;;10.23;6.80;;;;;;;11.14;82.58;101777.56;4890294;29;20048;-81
2022/05/19 04:34:26;;;;;;;9.20;5.82;;;;;;;10.82;81.23;101747.16;4889021;29;20056;-79
2022/05/19 04:36:52;;;;;;;11.18;5.60;;;;;;;11.35;82.84;101805.97;4892008;29;20045;-80
2022/05/19 04:39:24;;;;;;;12.55;6.38;;;;;;;11.34;81.30;101749.03;4894942;29;20036;-83
2022/05/19 04:41:50;;;;;;;18.73;6.87;;;;;;;11.21;82.06;101747.03;4887209;29;20052;-82
2022/05/19 04:44:20;;;;;;;8.95;6.93;;;;;;;11.49;80.41;101739.66;4881807;29;20194;-81
2022/05/19 04:46:48;;;;;;;13.30;6.45;;;;;;;11.59;78.67;101738.97;4905539;29;20462;-82
2022/05/19 04:49:15;;;;;;;11.30;6.72;;;;;;;11.94;78.80;101780.75;4890015;29;20048;-81
2022/05/19 04:51:41;;;;;;;9.98;6.53;;;;;;;11.76;78.13;101752.41;4891242;29;20450;-83
2022/05/19 04:54:07;;;;;;;11.05;7.40;;;;;;;11.81;77.44;101753.34;4878287;29;20032;-80
2022/05/19 04:56:37;;;;;;;23.13;7.28;;;;;;;12.25;78.62;101793.56;4896034;29;20052;-80
2022/05/19 04:59:04;;;;;;;12.25;7.68;;;;;;;12.18;78.51;101744.31;4887432;29;20110;-81
2022/05/19 05:01:30;;;;;;;22.88;7.45;;;;;;;12.48;76.83;101794.75;4883359;29;21028;-81
2022/05/19 05:03:55;;;;;;;15.88;9.48;;;;;;;12.49;77.10;101813.22;4890142;29;20124;-81
2022/05/19 05:06:24;;;;;;;13.05;7.70;;;;;;;12.22;75.28;101739.97;4909546;29;20068;-83
2022/05/19 05:08:49;;;;;;;14.02;8.00;;;;;;;12.31;76.27;101742.75;4909364;29;20049;-81
2022/05/19 05:11:15;;;;;;;14.00;7.55;;;;;;;12.23;77.56;101755.78;4899240;29;20157;-81
2022/05/19 05:13:40;;;;;;;10.50;6.40;;;;;;;12.60;75.43;101758.06;4911654;29;20056;-81
2022/05/19 05:16:06;;;;;;;24.77;6.93;;;;;;;13.16;73.83;101781.59;4910307;29;20046;-81
2022/05/19 05:18:33;;;;;;;14.18;6.88;;;;;;;13.67;71.50;101798.88;4907913;29;20519;-81
2022/05/19 05:21:06;;;;;;;8.10;5.57;;;;;;;13.69;72.63;101757.53;4874706;29;20032;-80
2022/05/19 05:23:32;;;;;;;10.57;5.90;;;;;;;13.91;71.43;101748.06;4876917;29;20104;-79
2022/05/19 05:26:01;;;;;;;16.20;8.80;;;;;;;14.25;69.18;101771.16;4890421;29;20472;-80
2022/05/19 05:28:27;;;;;;;12.55;7.78;;;;;;;14.58;69.56;101765.25;4891349;29;20045;-81
2022/05/19 05:30:52;;;;;;;17.52;9.55;;;;;;;14.96;69.36;101791.88;4883860;29;20048;-80
2022/05/19 05:33:19;;;;;;;9.90;5.07;;;;;;;14.80;67.54;101755.69;4892457;29;20044;-81
2022/05/19 05:35:46;;;;;;;10.27;5.32;;;;;;;15.33;66.12;101776.09;4867643;29;20055;-82
2022/05/19 05:38:11;;;;;;;11.45;5.10;;;;;;;15.37;65.97;101755.84;4881539;29;20246;-80
2022/05/19 05:40:37;;;;;;;20.27;5.88;;;;;;;15.49;63.97;101754.97;4884684;29;20063;-80
2022/05/19 05:43:08;;;;;;;10.20;6.28;;;;;;;15.78;60.38;101765.59;4884057;29;20060;-80
2022/05/19 05:45:35;;;;;;;9.23;3.47;;;;;;;15.65;58.91;101763.81;4896234;29;20033;-80
2022/05/19 05:48:01;;;;;;;15.98;3.90;;;;;;;15.24;61.14;101767.25;4893812;29;20040;-83
2022/05/19 05:50:28;;;;;;;18.60;4.25;;;;;;;16.17;57.39;101814.13;4891243;29;20056;-81
2022/05/19 05:52:54;;;;;;;12.82;3.60;;;;;;;15.97;54.79;101764.72;4893047;29;20182;-81
2022/05/19 05:55:20;;;;;;;8.10;3.60;;;;;;;16.28;54.58;101780.59;4901588;29;20053;-81
2022/05/19 05:57:45;;;;;;;6.78;2.97;;;;;;;16.32;51.98;101761.16;4889838;29;20750;-80
2022/05/19 06:00:12;;;;;;;5.50;3.05;;;;;;;16.43;54.66;101755.81;4904880;29;20104;-81
2022/05/19 06:02:38;;;;;;;8.95;3.10;;;;;;;16.86;50.78;101803.44;4910534;29;20067;-74
2022/05/19 06:05:04;;;;;;;7.55;3.30;;;;;;;16.45;49.94;101757.56;4895872;29;20052;-75
2022/05/19 06:07:30;;;;;;;9.85;3.45;;;;;;;16.42;47.18;101759.38;4893395;29;20052;-76
2022/05/19 06:09:56;;;;;;;5.63;2.85;;;;;;;16.25;47.41;101791.19;4895604;29;21598;-76
2022/05/19 06:12:28;;;;;;;6.18;2.47;;;;;;;16.10;47.35;101770.00;4899653;29;20048;-76
2022/05/19 06:14:56;;;;;;;13.30;3.13;;;;;;;16.28;47.97;101763.81;4897367;29;20063;-75
2022/05/19 06:17:27;;;;;;;7.28;1.95;;;;;;;15.98;48.24;101760.31;4896843;29;20188;-75
2022/05/19 06:19:53;;;;;;;6.50;2.17;;;;;;;16.41;48.07;101749.63;4891903;29;20044;-75
2022/05/19 06:22:22;;;;;;;6.90;2.53;;;;;;;16.58;49.26;101800.84;4897037;29;20059;-75
2022/05/19 06:24:48;;;;;;;4.07;2.17;;;;;;;16.39;50.67;101754.09;4893837;29;20067;-76
2022/05/19 06:27:15;;;;;;;13.52;1.95;;;;;;;17.04;47.83;101813.97;4911150;29;20040;-76
2022/05/19 06:29:41;;;;;;;4.07;2.10;;;;;;;16.49;48.59;101792.03;4892782;29;20044;-76
2022/05/19 06:32:12;;;;;;;9.85;2.28;;;;;;;16.66;47.93;101812.28;4896836;29;20048;-76
2022/05/19 06:34:37;;;;;;;4.75;2.17;;;;;;;16.44;48.27;101776.16;4892587;29;20306;-76
2022/05/19 06:37:03;;;;;;;7.05;1.67;;;;;;;17.23;47.41;101829.78;4896684;29;20498;-76
2022/05/19 06:39:29;;;;;;;4.28;2.45;;;;;;;16.56;47.29;101776.09;4915387;29;20047;-76
2022/05/19 06:42:01;;;;;;;6.68;2.25;;;;;;;16.41;47.04;101777.03;4896355;29;20060;-76
2022/05/19 06:44:45;;;;;;;2.65;1.50;;;;;;;16.74;45.83;101766.31;4896813;29;20063;-77
2022/05/19 06:47:14;;;;;;;3.05;1.90;;;;;;;17.37;44.95;101819.09;4896416;29;20082;-76
2022/05/19 06:49:47;;;;;;;2.42;1.15;;;;;;;16.38;43.72;101776.16;4894820;29;20088;-76
2022/05/19 06:52:13;;;;;;;;;;;;;;;16.65;44.59;101781.38;4894075;29;20052;-76
2022/05/19 06:54:43;;;;;;;2.78;1.77;;;;;;;17.32;44.22;101816.47;4898333;29;20565;-75
2022/05/19 06:57:09;;;;;;;4.03;1.65;;;;;;;16.97;46.15;101808.69;4908235;29;20040;-75
2022/05/19 06:59:35;;;;;;;2.58;1.15;;;;;;;16.67;43.93;101784.03;4897851;29;20048;-76
2022/05/19 07:02:02;;;;;;;3.92;1.63;;;;;;;17.15;44.67;101813.91;4887592;29;20059;-75
2022/05/19 07:04:27;;;;;;;12.95;2.28;;;;;;;17.30;41.89;101759.88;4900238;29;20180;-77
2022/05/19 07:06:53;;;;;;;2.47;1.27;;;;;;;17.40;39.00;101811.16;4897229;29;20123;-76
2022/05/19 07:09:20;;;;;;;3.55;1.75;;;;;;;17.16;42.05;101782.97;4895364;29;20584;-74
2022/05/19 07:11:48;;;;;;;4.53;1.30;;;;;;;17.29;40.32;101789.97;4897654;29;20063;-76
2022/05/19 07:14:15;;;;;;;2.88;1.70;;;;;;;17.35;41.19;101783.72;4890367;29;20052;-76
2022/05/19 07:16:44;;;;;;;5.65;1.88;;;;;;;17.14;41.31;101751.16;4893379;29;20052;-76
2022/05/19 07:21:57;;;;;;;9.35;2.10;;;;;;;17.16;41.62;101754.69;4893883;29;20111;-76
2022/05/19 07:24:24;;;;;;;13.75;2.33;;;;;;;16.90;40.70;101767.19;4896437;29;20049;-77
2022/05/19 07:26:55;;;;;;;2.72;1.15;;;;;;;17.27;40.53;101815.63;4900588;29;20036;-76
2022/05/19 07:29:22;;;;;;;6.22;2.47;;;;;;;17.06;42.70;101761.78;4904441;29;20067;-76
2022/05/19 07:31:49;;;;;;;4.20;1.48;;;;;;;17.35;38.57;101766.06;4892107;29;20049;-76
2022/05/19 07:34:17;;;;;;;3.63;1.90;;;;;;;17.68;38.81;101811.84;4893169;29;20052;-75
2022/05/19 07:36:43;;;;;;;3.60;2.00;;;;;;;17.72;41.40;101776.41;4896511;29;20055;-75
2022/05/19 07:39:11;;;;;;;4.82;1.88;;;;;;;18.05;38.01;101814.25;4898933;29;20905;-75
2022/05/19 07:41:36;;;;;;;4.75;2.22;;;;;;;17.29;41.96;101820.03;4874189;29;20091;-75
2022/05/19 07:44:02;;;;;;;9.30;1.83;;;;;;;17.69;40.35;101764.03;4895806;29;20080;-75
2022/05/19 07:46:30;;;;;;;5.43;2.40;;;;;;;18.27;41.95;101810.50;4886697;29;20080;-75
2022/05/19 07:48:58;;;;;;;4.50;1.52;;;;;;;17.81;39.34;101762.22;4885806;29;20051;-76
2022/05/19 07:51:31;;;;;;;4.32;1.58;;;;;;;17.67;37.34;101749.03;4907194;29;20040;-76
2022/05/19 07:54:00;;;;;;;3.72;2.00;;;;;;;18.43;39.45;101797.09;4897935;29;20108;-76
2022/05/19 07:56:26;;;;;;;4.60;2.08;;;;;;;18.58;38.83;101788.06;4888447;29;20604;-75
2022/05/19 07:58:53;;;;;;;6.82;2.03;;;;;;;18.42;37.79;101801.50;4894307;29;20060;-77
2022/05/19 08:01:19;;;;;;;3.38;2.00;;;;;;;18.38;38.14;101754.59;4894103;29;20497;-76
2022/05/19 08:03:45;;;;;;;3.55;1.30;;;;;;;18.12;37.78;101798.25;4896327;29;20041;-76
2022/05/19 08:06:13;;;;;;;2.97;1.48;;;;;;;17.84;38.98;101762.19;4910187;29;20036;-76
2022/05/19 08:08:39;;;;;;;2.42;1.17;;;;;;;18.00;40.60;101758.50;4871179;29;20182;-75
2022/05/19 08:11:12;;;;;;;5.35;2.08;;;;;;;18.18;38.12;101768.09;4894726;29;20672;-77
2022/05/19 08:16:24;;;;;;;7.30;1.63;;;;;;;19.03;36.81;101768.00;4893674;29;19931;-76
2022/05/19 08:18:50;;;;;;;3.92;1.55;;;;;;;18.77;38.18;101785.19;4896369;29;20580;-75
2022/05/19 08:21:16;;;;;;;3.03;1.42;;;;;;;18.42;37.78;101808.59;4892058;29;20508;-76
2022/05/19 08:23:46;;;;;;;2.95;1.23;;;;;;;18.16;36.27;101804.41;4892951;29;20043;-76
2022/05/19 08:26:12;;;;;;;1.30;0.75;;;;;;;18.55;35.53;101805.78;4896109;29;20057;-76
2022/05/19 08:28:41;;;;;;;7.80;1.35;;;;;;;18.98;35.10;101794.69;4893640;29;20068;-76
2022/05/19 08:31:24;;;;;;;2.33;0.90;;;;;;;18.79;37.78;101757.72;4901696;29;20058;-76
2022/05/19 08:33:53;;;;;;;7.57;1.38;;;;;;;18.68;36.22;101764.00;4893289;29;20056;-77
2022/05/19 08:36:19;;;;;;;2.63;1.02;;;;;;;19.04;35.29;101742.31;4898721;29;20346;-77
2022/05/19 08:38:46;;;;;;;4.38;1.65;;;;;;;19.42;37.44;101763.03;4910670;29;20063;-76
2022/05/19 08:41:36;;;;;;;4.20;2.35;;;;;;;19.80;37.96;101743.81;4894228;29;20148;-76
2022/05/19 08:44:12;;;;;;;4.60;1.63;;;;;;;19.71;38.45;101781.25;4891963;29;20163;-75
2022/05/19 08:46:51;;;;;;;6.93;1.08;;;;;;;19.39;35.68;101736.47;4896169;29;20058;-76
2022/05/19 08:49:53;;;;;;;2.10;1.05;;;;;;;19.99;36.43;101733.75;4892509;29;21280;-76
2022/05/19 08:52:28;;;;;;;3.17;1.67;;;;;;;20.96;38.36;101779.00;4888577;29;20053;-76
2022/05/19 08:54:57;;;;;;;3.75;1.55;;;;;;;20.93;38.36;101747.91;4892888;29;20056;-76
2022/05/19 08:57:56;;;;;;;10.25;1.83;;;;;;;20.69;33.01;101751.09;4893627;29;20132;-75
2022/05/19 09:00:31;;;;;;;8.35;1.77;;;;;;;20.94;38.07;101739.00;4880198;29;20052;-77
2022/05/19 09:03:16;;;;;;;5.70;1.75;;;;;;;21.34;35.97;101772.78;4894442;29;20051;-76
2022/05/19 09:06:20;;;;;;;3.70;1.63;;;;;;;20.98;32.33;101721.13;4895893;29;20048;-76
2022/05/19 09:09:16;;;;;;;5.65;2.50;;;;;;;21.93;35.15;101766.94;4897534;29;20170;-76
2022/05/19 09:12:00;;;;;;;3.92;1.75;;;;;;;21.23;33.19;101714.28;4896947;29;20053;-76
2022/05/19 09:14:30;;;;;;;7.82;2.20;;;;;;;22.23;33.11;101775.13;4890550;29;20089;-76
2022/05/19 09:17:02;;;;;;;3.15;1.67;;;;;;;21.45;32.92;101757.44;4900993;29;20071;-75
2022/05/19 09:19:45;;;;;;;4.68;1.45;;;;;;;22.01;32.82;101727.53;4893129;29;20052;-76
2022/05/19 09:22:18;;;;;;;7.18;1.38;;;;;;;21.92;32.34;101739.34;4897397;29;20406;-75
2022/05/19 09:24:45;;;;;;;;;;;;;;;21.29;32.11;101750.66;4913015;29;20048;-75
2022/05/19 12:25:32;;;;;;;7.75;2.60;;;;;;;21.89;36.04;101605.81;4848269;29;20049;-73
2022/05/19 12:28:26;;;;;;;8.73;3.30;;;;;;;21.90;36.19;101617.38;4839917;29;20045;-73
2022/05/19 12:34:02;;;;;;;4.78;1.90;;;;;;;21.57;36.69;101606.69;4844440;29;20601;-74
2022/05/19 12:37:06;;;;;;;2.95;1.60;;;;;;;22.23;36.85;101610.22;4838133;29;20424;-74
2022/05/19 12:39:47;;;;;;;3.80;1.77;;;;;;;21.85;37.61;101611.28;4843838;29;20080;-73
2022/05/19 12:42:25;;;;;;;3.50;1.73;;;;;;;21.45;35.40;101610.56;4841403;29;20050;-73
2022/05/19 12:44:56;;;;;;;7.15;1.75;;;;;;;20.60;37.27;101602.78;4857764;29;20125;-73
2022/05/19 12:47:25;;;;;;;7.85;1.60;;;;;;;20.52;38.59;101600.28;4839329;29;20054;-73
2022/05/19 12:50:10;;;;;;;4.88;1.90;;;;;;;21.08;36.47;101589.22;4844856;29;21036;-73
2022/05/19 12:53:05;;;;;;;5.63;1.52;;;;;;;21.34;36.89;101607.25;4842272;29;20077;-73
2022/05/19 12:55:47;;;;;;;3.95;1.77;;;;;;;21.15;36.67;101558.78;4841960;29;20061;-73
2022/05/19 12:58:42;;;;;;;7.28;2.25;;;;;;;20.33;37.76;101593.59;4840969;29;20045;-73
2022/05/19 13:01:41;;;;;;;5.90;2.10;;;;;;;21.21;36.58;101584.44;4841222;29;20045;-73
2022/05/19 13:04:10;;;;;;;3.72;1.70;;;;;;;21.30;37.14;101586.88;4851781;29;20057;-74
2022/05/19 13:06:50;;;;;;;2.70;1.60;;;;;;;21.16;37.98;101575.66;4845121;29;20048;-74
2022/05/19 13:09:26;;;;;;;9.35;1.90;;;;;;;21.19;37.96;101589.84;4843376;29;20060;-73
2022/05/19 13:11:56;;;;;;;6.85;2.00;;;;;;;21.03;37.52;101543.97;4843869;29;20054;-74
2022/05/19 13:14:40;;;;;;;5.85;2.13;;;;;;;21.17;38.10;101543.59;4842928;29;20052;-74
2022/05/19 13:17:14;;;;;;;4.40;2.10;;;;;;;21.39;36.59;101557.25;4844611;29;20060;-73
2022/05/19 13:19:41;;;;;;;6.25;1.90;;;;;;;20.87;36.87;101530.13;4845657;29;20176;-72
2022/05/19 13:22:21;;;;;;;9.57;1.83;;;;;;;21.07;36.45;101577.66;4858976;29;20045;-73
2022/05/19 13:24:47;;;;;;;3.38;1.80;;;;;;;20.93;36.48;101582.47;4843693;29;20061;-73
2022/05/19 13:30:46;;;;;;;10.73;2.00;;;;;;;20.95;37.65;101516.56;4844100;29;20055;-74
2022/05/19 13:33:19;;;;;;;4.55;2.10;;;;;;;21.32;37.58;101573.50;4843873;29;20057;-72
2022/05/19 13:35:45;;;;;;;4.78;1.67;;;;;;;21.49;38.52;101563.25;4845742;29;20046;-72
2022/05/19 13:38:23;;;;;;;4.60;2.15;;;;;;;21.25;37.15;101549.59;4838880;29;20057;-73
2022/05/19 13:40:50;;;;;;;3.67;2.08;;;;;;;20.53;37.71;101548.69;4854912;29;20136;-73
2022/05/19 13:43:34;;;;;;;9.15;1.77;;;;;;;20.68;36.25;101560.84;4841161;29;20741;-74
2022/05/19 13:46:04;;;;;;;5.60;1.83;;;;;;;20.96;36.74;101568.19;4857807;29;20046;-73
2022/05/19 13:48:54;;;;;;;3.47;1.60;;;;;;;20.86;37.15;101563.06;4837661;29;20113;-74
2022/05/19 13:51:41;;;;;;;3.60;1.52;;;;;;;20.74;37.92;101511.78;4847590;29;20702;-74
2022/05/19 13:54:13;;;;;;;4.20;2.00;;;;;;;20.56;37.99;101514.00;4839897;29;20533;-74
2022/05/19 13:56:42;;;;;;;7.13;2.70;;;;;;;20.81;38.52;101514.28;4843368;29;20117;-73
2022/05/19 13:59:17;;;;;;;2.45;1.40;;;;;;;21.24;39.19;101550.53;4844052;29;20054;-73
2022/05/19 14:02:06;;;;;;;3.65;1.60;;;;;;;20.83;38.48;101555.13;4840447;29;20458;-75
2022/05/19 14:04:35;;;;;;;7.00;1.95;;;;;;;21.06;37.20;101554.53;4843779;29;20053;-74
2022/05/19 14:07:02;;;;;;;2.75;1.30;;;;;;;20.87;37.76;101492.75;4843259;29;20569;-74
2022/05/19 14:09:50;;;;;;;7.68;2.50;;;;;;;20.87;35.96;101507.91;4846958;29;20064;-74
2022/05/19 14:12:34;;;;;;;14.80;1.70;;;;;;;21.29;35.44;101545.09;4865431;29;20387;-75
2022/05/19 14:15:05;;;;;;;5.00;1.58;;;;;;;20.57;36.42;101488.19;4848500;29;20049;-72
2022/05/19 14:17:44;;;;;;;4.75;1.92;;;;;;;20.84;35.93;101508.88;4845740;29;20056;-75
2022/05/19 14:20:19;;;;;;;3.40;1.60;;;;;;;21.19;36.07;101547.13;4846198;29;20072;-73
2022/05/19 14:22:45;;;;;;;3.60;2.00;;;;;;;;;;4845921;29;20053;-73
2022/05/19 14:25:12;;;;;;;7.22;2.33;;;;;;;21.66;36.55;101544.13;4845402;29;20053;-73
2022/05/19 14:27:40;;;;;;;8.50;2.03;;;;;;;21.62;35.84;101531.75;4856558;29;20129;-73
2022/05/19 14:30:13;;;;;;;8.88;1.58;;;;;;;21.64;35.85;101529.94;4845543;29;20054;-74
2022/05/19 14:32:55;;;;;;;2.85;0.98;;;;;;;21.40;35.39;101540.38;4847462;29;20054;-74
2022/05/19 14:35:29;;;;;;;6.90;1.58;;;;;;;21.50;35.56;101539.19;4847617;29;20426;-74
2022/05/19 14:38:02;;;;;;;5.07;1.83;;;;;;;21.45;36.27;101541.13;4849301;29;20042;-74
2022/05/19 14:43:26;;;;;;;2.42;1.40;;;;;;;21.39;36.18;101529.69;4836231;29;20073;-72
2022/05/19 14:45:55;;;;;;;4.15;1.17;;;;;;;21.32;35.87;101533.44;4857177;29;20045;-72
2022/05/19 14:48:35;;;;;;;6.63;2.03;;;;;;;21.01;35.83;101489.75;4842707;29;20091;-72
2022/05/19 14:51:02;;;;;;;4.28;1.98;;;;;;;21.22;37.46;101527.47;4844866;29;20060;-73
2022/05/19 14:53:33;;;;;;;4.80;2.28;;;;;;;21.24;35.61;101480.25;4843606;29;20050;-75
2022/05/19 14:56:07;;;;;;;10.32;2.92;;;;;;;21.39;35.45;101514.53;4821016;29;20049;-73
2022/05/19 14:59:01;;;;;;;4.70;2.60;;;;;;;21.30;35.94;101530.81;4842278;29;21023;-75